Whiteman Air Force Base
KSZL : now visible

Airfield :











YOU CAN JOIN US ON...

 
LOGIN :

Register | Disclaimer

   EN    FR    IT 

 









Legend :    VFR   Marginal VFR   IFR   Intensive IFR   Very Intensive IFR
Visi :
Ceiling :
>= 8 km
>= 3000ft
5 to 8 km
1000 to 3000 ft
1500m to 5 km
500 to 1000 ft
800 to 1500m
200 to 500 ft
< 800m
< 200 ft
Symbols :   Thunderstorms  Fog  Heavy snow  Heavy precipitations  Wind > 20 kt






- Airport Elevation : 870 ft


KSZL - Whiteman Air Force Base

CURRENT METAR :
  • 071956Z 21012KT 10SM FEW029 25/19 A2971 RMK AO2A SLP058 T02510194

EXPIRED METARs :
  • 071939Z 22011G18KT 10SM FEW028 25/20 A2972 RMK SLP062
  • 071856Z 20013G18KT 10SM BKN024 24/20 A2973 RMK AO2A SLP065 T02400197
  • 071756Z 21011G18KT 10SM OVC021 22/20 A2975 RMK AO2A CIG 020 RWY01 SLP072 T02180197 10218 20171 55010

TAF AMD TAF KSZL
Valid from the 07 at 19:00 until the 09 at 01:00 UTC


071940Z 0719/0901 21012G18KT 9999 FEW030 QNH2972INS
BECMG 0720/0721 22009KT 9999 SKC QNH2972INS
BECMG 0801/0802 VRB06KT 8000 BR SKC QNH2972INS
BECMG 0815/0816 20009KT 9999 NSW SKC QNH2974INS
BECMG 0819/0820 25012G18KT 9999 BKN140 QNH2968INS
BECMG 0823/0824 12345KT 9999 BKN070 BKN140 QNH2975INS TX26/0821Z TN13/0811Z



MET'MAP, your aeronautical weather chart ! - Copyright ORBIFLY December 2007 - Disclaimer

ORBIFLY MET'MAP TEAM :

Programming & Development : Alexandra Zaïnal
Concept & original design : Baudouin d'Aumeries
Assistance for programming : Marc-Olivier Méhu
Technical & hardware support : Manuel Goepfert

Contact : metmap@orbifly.com




SOURCES & CREDITS :

   NOAA       Earth
Advisory